Latest Weather Observations for Troughton Island

IDD60801

Issued at 11:35 pm CST Saturday 22 November 2014 (issued every 30 minutes, with the page automatically refreshed every 10 minutes)

About weather observations | Map of weather stations | Latest weather observations for NT | Other Formats
Station Details ID: 001007 Name: TROUGHTON ISLAND Lat: -13.75 Lon: 126.15 Height: 6.0 m
Data from the previous 72 hours. | See also: Recent months at Troughton Island
Date/Time
CST
Temp
°C
App
Temp
°C
Dew
Point
Rel
Hum
%
Delta-T
°C
Wind Press
QNH
hPa
Press
MSL
hPa
Rain
since 9 am
mm
Dir
 
Spd
km/h
Gust
km/h
Spd
kts
Gust
kts
22/11:30pm 29.0 35.0 26.4 86 1.9 NW 7 11 4 6 1011.6 - 0.0
22/11:00pm 29.8 34.7 26.4 82 2.4 N 13 15 7 8 1011.4 - 0.0
22/10:30pm 29.8 33.9 25.8 79 2.8 N 15 17 8 9 1011.2 1011.1 0.0
22/10:00pm 29.7 34.1 26.3 82 2.4 N 15 19 8 10 1011.4 - 0.0
22/09:30pm 29.8 34.4 26.6 83 2.3 N 15 19 8 10 1011.5 - 0.0
22/09:00pm 29.8 34.8 26.6 83 2.3 N 13 20 7 11 1011.3 - 0.0
22/08:30pm 30.0 35.0 26.6 82 2.4 N 13 17 7 9 1011.0 - 0.0
22/08:00pm 30.0 35.0 26.6 82 2.4 N 13 17 7 9 1010.6 - 0.0
22/07:30pm 30.0 34.1 26.4 81 2.6 N 17 20 9 11 1010.0 1009.9 0.0
22/07:00pm 30.5 34.1 26.2 78 3.1 NNW 19 24 10 13 1009.4 - 0.0
22/06:30pm 31.1 34.1 26.1 75 3.6 NNW 22 26 12 14 1008.7 - 0.0
22/06:00pm 31.5 34.9 26.1 73 3.9 NNW 20 24 11 13 1008.5 - 0.0
22/05:30pm 31.6 35.2 26.4 74 3.7 NNW 20 24 11 13 1008.5 - 0.0
22/05:00pm 32.4 36.4 26.7 72 4.1 NW 19 22 10 12 1008.4 - 0.0
22/04:30pm 32.1 36.4 26.6 72 4.0 NNW 17 22 9 12 1008.4 1008.3 0.0
22/04:00pm 32.2 36.1 26.0 70 4.4 NNW 17 20 9 11 1009.0 - 0.0
22/03:30pm 32.3 36.6 26.1 70 4.4 NNW 15 19 8 10 1009.6 - 0.0
22/03:00pm 32.6 37.6 26.6 70 4.3 NW 13 17 7 9 1009.9 - 0.0
22/02:30pm 33.1 38.7 26.9 70 4.5 WNW 11 15 6 8 1010.1 - 0.0
22/02:00pm 32.5 37.6 26.1 69 4.6 WNW 11 15 6 8 1010.4 - 0.0
22/01:30pm 31.8 36.4 25.9 71 4.2 WNW 13 15 7 8 1010.6 1010.5 0.0
22/01:00pm 32.1 36.9 26.2 71 4.2 NW 13 15 7 8 1010.8 - 0.0
22/12:30pm 32.2 37.5 26.5 72 4.1 WNW 11 15 6 8 1011.2 - 0.0
22/12:00pm 32.3 37.6 26.4 71 4.2 NNW 11 17 6 9 1011.5 - 0.0
22/11:30am 32.0 37.2 26.3 72 4.1 N 11 15 6 8 1011.8 - 0.0
22/11:00am 31.1 36.4 25.9 74 3.7 WNW 9 13 5 7 1011.9 - 0.0
22/10:30am 30.8 36.1 25.2 72 4.0 WNW 7 11 4 6 1012.1 1012.0 0.0
22/10:00am 31.6 37.0 25.2 69 4.5 W 6 7 3 4 1012.3 - 0.0
22/09:30am 31.4 36.8 25.5 71 4.2 W 7 9 4 5 1012.2 - 0.0
22/09:00am 31.1 36.5 25.4 71 4.0 W 7 9 4 5 1011.6 - 0.0
22/08:30am 30.8 36.4 25.8 74 3.6 W 7 9 4 5 1011.1 - 0.0
22/08:00am 30.4 36.4 26.3 79 2.9 WSW 7 9 4 5 1010.9 - 0.0
22/07:30am 29.8 36.1 26.8 84 2.2 SW 7 9 4 5 1010.6 1010.5 0.0
22/07:00am 28.9 35.4 27.1 90 1.3 SW 7 9 4 5 1010.2 - 0.0
22/06:30am 28.5 34.2 26.5 89 1.4 WSW 9 11 5 6 1009.8 - 0.0
22/06:00am 28.6 33.9 26.4 88 1.6 W 11 13 6 7 1009.4 - 0.0
22/05:30am 28.6 33.7 26.2 87 1.7 W 11 13 6 7 1009.2 - 0.0
22/05:00am 28.7 34.4 26.5 88 1.6 WSW 9 9 5 5 1009.1 - 0.0
22/04:30am 28.8 34.5 26.4 87 1.7 WSW 9 11 5 6 1008.9 1008.8 0.0
22/04:00am 28.9 35.0 26.5 87 1.7 SW 7 11 4 6 1008.7 - 0.0
22/03:30am 29.2 35.2 26.4 85 2.0 SW 7 9 4 5 1009.0 - 0.0
22/03:00am 29.2 34.5 27.0 88 1.6 SW 13 15 7 8 1009.1 - 0.0
22/02:30am 29.4 35.1 27.0 87 1.7 SW 11 13 6 7 1009.2 - 0.0
22/02:00am 29.5 35.0 27.3 88 1.6 WSW 13 15 7 8 1009.6 - 0.0
22/01:30am 29.3 34.8 27.3 89 1.4 W 13 15 7 8 1009.6 1009.5 0.0
22/01:00am 29.3 35.9 27.7 91 1.2 W 9 9 5 5 1010.2 - 0.0
22/12:30am 29.1 35.4 27.3 90 1.3 NW 9 11 5 6 1010.4 - 0.0
22/12:00am 29.4 35.4 27.4 89 1.4 WNW 11 13 6 7 1010.6 - 0.0
 
Date/Time
CST
Temp
°C
App
Temp
°C
Dew
Point
Rel
Hum
%
Delta-T
°C
Wind Press
QNH
hPa
Press
MSL
hPa
Rain
since 9 am
mm
Dir
 
Spd
km/h
Gust
km/h
Spd
kts
Gust
kts
21/11:30pm 29.3 35.7 27.5 90 1.3 NW 9 11 5 6 1010.5 - 0.0
21/11:00pm 29.3 35.0 27.1 88 1.6 NW 11 13 6 7 1010.6 - 0.0
21/10:30pm 29.3 35.3 26.9 87 1.7 NW 9 11 5 6 1010.7 1010.6 0.0
21/10:00pm 29.5 34.5 26.5 84 2.1 NW 13 17 7 9 1010.6 - 0.0
21/09:30pm 29.9 35.1 26.3 81 2.6 WNW 11 13 6 7 1010.8 - 0.0
21/09:00pm 29.9 35.0 26.1 80 2.7 WNW 11 13 6 7 1010.6 - 0.0
21/08:30pm 29.8 34.3 25.8 79 2.8 NNW 13 15 7 8 1009.8 - 0.0
21/08:00pm 30.3 34.5 26.0 78 3.1 NNW 15 19 8 10 1009.5 - 0.0
21/07:30pm 30.6 34.1 25.4 74 3.7 N 17 20 9 11 1009.3 1009.2 0.0
21/07:00pm 30.8 34.9 25.8 74 3.6 NNW 15 19 8 10 1008.8 - 0.0
21/06:30pm 31.2 35.3 25.8 73 3.8 NNW 15 20 8 11 1009.0 - 0.0
21/06:00pm 31.7 35.4 25.8 71 4.2 NNW 17 22 9 12 1008.6 - 0.0
21/05:30pm 32.0 35.4 25.8 69 4.4 NNW 19 20 10 11 1008.4 - 0.0
21/05:00pm 32.5 36.6 26.3 70 4.4 NW 17 20 9 11 1008.2 - 0.0
21/04:30pm 32.9 36.7 26.7 70 4.5 NW 20 24 11 13 1008.2 1008.1 0.0
21/04:00pm 32.7 36.0 26.0 68 4.8 NW 20 22 11 12 1008.6 - 0.0
21/03:30pm 32.9 36.7 26.7 70 4.5 NW 20 24 11 13 1008.6 - 0.0
21/03:00pm 32.8 36.0 25.9 67 4.9 NW 20 22 11 12 1009.1 - 0.0
21/02:30pm 33.4 37.5 26.4 66 5.0 NW 17 20 9 11 1009.2 - 0.0
21/02:00pm 32.8 37.1 26.6 70 4.5 NW 17 19 9 10 1009.6 - 0.0
21/01:30pm 33.2 37.4 26.5 68 4.8 WNW 17 19 9 10 1009.7 1009.6 0.0
21/01:00pm 32.6 37.2 26.6 70 4.3 W 15 17 8 9 1010.2 - 0.0
21/12:30pm 32.5 37.0 25.8 68 4.8 W 13 15 7 8 1010.6 - 0.0
21/12:00pm 32.6 37.2 25.9 68 4.8 W 13 15 7 8 1011.1 - 0.0
21/11:30am 32.2 37.1 25.8 69 4.6 W 11 13 6 7 1011.5 - 0.0
21/11:00am 32.6 37.4 26.2 69 4.6 WSW 13 15 7 8 1011.7 - 0.0
21/10:30am 32.4 37.4 26.0 69 4.6 W 11 13 6 7 1011.7 1011.6 0.2
21/10:00am 31.7 36.6 25.8 71 4.2 W 11 13 6 7 1011.7 - 0.2
21/09:30am 31.6 36.4 25.7 71 4.2 W 11 13 6 7 1011.8 - 0.2
21/09:00am 31.7 36.7 26.0 72 4.1 WSW 11 13 6 7 1011.6 - 0.2
21/08:30am 31.0 35.7 25.6 73 3.8 W 11 15 6 8 1011.2 - 0.2
21/08:00am 30.6 35.0 26.3 78 3.1 W 15 17 8 9 1010.9 - 0.2
21/07:30am 29.9 34.6 26.1 80 2.7 WNW 13 17 7 9 1010.5 1010.4 0.2
21/07:00am 29.2 33.7 25.8 82 2.4 WNW 13 17 7 9 1010.3 - 0.2
21/06:30am 28.9 32.2 24.5 77 3.1 W 15 17 8 9 1010.0 - 0.2
21/06:00am 28.7 32.3 24.3 77 3.1 WNW 13 15 7 8 1009.8 - 0.2
21/05:30am 28.6 32.3 23.9 75 3.2 W 11 11 6 6 1009.7 - 0.2
21/05:00am 28.7 32.9 24.7 79 2.8 W 11 11 6 6 1009.8 - 0.2
21/04:30am 28.7 33.1 25.1 81 2.5 WNW 11 11 6 6 1009.5 1009.4 0.2
21/04:00am 28.9 33.3 25.1 80 2.7 W 11 13 6 7 1009.4 - 0.2
21/03:30am 29.0 33.2 24.8 78 2.9 W 11 13 6 7 1009.2 - 0.2
21/03:00am 29.2 32.8 25.0 78 2.9 W 15 17 8 9 1009.3 - 0.2
21/02:30am 29.3 32.8 25.5 80 2.7 WSW 17 20 9 11 1009.5 - 0.2
21/02:00am 29.3 33.1 25.3 79 2.8 WSW 15 17 8 9 1009.8 - 0.2
21/01:30am 29.4 32.4 24.7 76 3.3 W 17 19 9 10 1010.1 1010.0 0.2
21/01:00am 29.4 32.6 24.9 77 3.2 W 17 20 9 11 1010.2 - 0.2
21/12:30am 29.6 33.1 26.0 81 2.6 WNW 19 20 10 11 1010.6 - 0.2
21/12:00am 29.6 33.6 26.2 82 2.4 WNW 17 19 9 10 1010.8 - 0.2
 
Date/Time
CST
Temp
°C
App
Temp
°C
Dew
Point
Rel
Hum
%
Delta-T
°C
Wind Press
QNH
hPa
Press
MSL
hPa
Rain
since 9 am
mm
Dir
 
Spd
km/h
Gust
km/h
Spd
kts
Gust
kts
20/11:30pm 29.6 34.9 27.0 86 1.9 NW 13 15 7 8 1011.0 - 0.2
20/11:00pm 29.5 34.3 26.3 83 2.3 WNW 13 15 7 8 1011.0 - 0.2
20/10:30pm 29.6 34.4 26.2 82 2.4 WNW 13 15 7 8 1010.7 1010.6 0.2
20/10:00pm 29.4 34.1 25.6 80 2.7 W 11 13 6 7 1010.5 - 0.2
20/09:30pm 29.3 33.4 24.6 76 3.3 WNW 11 13 6 7 1010.0 - 0.2
20/09:00pm 29.2 33.1 23.6 72 3.9 WNW 9 11 5 6 1009.9 - 0.2
20/08:30pm 29.0 31.5 22.5 68 4.4 NNW 13 15 7 8 1009.5 - 0.2
20/08:00pm 28.9 31.3 22.2 67 4.5 NW 13 15 7 8 1009.1 - 0.2
20/07:30pm 28.9 30.8 21.4 64 5.0 W 13 17 7 9 1009.1 1009.0 0.2
20/07:00pm 28.6 30.4 21.1 64 5.0 W 13 17 7 9 1008.8 - 0.2
20/06:30pm 28.6 29.8 22.1 68 4.4 WSW 19 22 10 12 1008.9 - 0.2
20/06:00pm 29.9 33.6 22.6 65 5.0 N 7 20 4 11 1008.6 - 0.2
20/05:30pm 30.4 31.5 22.0 60 5.7 S 19 26 10 14 1008.5 - 0.2
20/05:00pm 32.1 35.0 25.9 70 4.4 WNW 22 26 12 14 1008.8 - 0.2
20/04:30pm 32.6 35.3 26.2 69 4.6 NW 24 32 13 17 1008.1 1008.0 0.2
20/04:00pm 32.8 35.1 25.6 66 5.1 NW 24 28 13 15 1008.4 - 0.2
20/03:30pm 33.1 35.8 25.6 64 5.3 WNW 22 28 12 15 1008.6 - 0.2
20/03:00pm 33.2 35.5 25.7 64 5.3 WNW 24 28 13 15 1008.7 - 0.2
20/02:30pm 32.8 35.8 25.6 66 5.1 WNW 20 26 11 14 1009.2 - 0.2
20/02:00pm 34.4 37.9 26.3 62 5.8 W 20 24 11 13 1009.6 - 0.0
20/01:45pm 32.6 35.7 28.5 79 3.0 W 30 44 16 24 1009.8 - 0.0
20/01:30pm 33.1 38.0 28.1 75 3.7 W 19 24 10 13 1010.1 1010.0 0.0
20/01:00pm 33.9 39.4 29.1 76 3.6 W 20 24 11 13 1010.4 - 0.0
20/12:30pm 33.1 38.5 28.7 78 3.2 W 19 22 10 12 1010.7 - 0.0
20/12:00pm 32.9 38.0 28.3 77 3.4 W 19 20 10 11 1011.0 - 0.0
20/11:30am 32.4 37.9 28.3 79 3.0 W 17 20 9 11 1011.4 - 0.0
20/11:00am 32.8 38.2 28.2 77 3.4 W 17 20 9 11 1011.6 - 0.0
20/10:30am 31.9 37.8 28.4 82 2.6 WSW 15 19 8 10 1011.8 1011.7 0.0
20/10:00am 31.9 38.2 28.9 84 2.2 WSW 15 17 8 9 1011.9 - 0.0
20/09:30am 31.7 38.5 29.5 88 1.6 WSW 15 17 8 9 1012.0 - 0.0
20/09:00am 31.3 37.8 28.7 86 1.9 WSW 13 15 7 8 1011.8 - 0.0
20/08:30am 30.7 37.1 28.5 88 1.6 W 13 15 7 8 1011.4 - 0.0
20/08:00am 30.2 36.9 28.9 93 1.0 W 13 15 7 8 1010.9 - 0.0
20/07:30am 29.7 36.7 29.3 98 0.3 WSW 13 17 7 9 1010.9 1010.8 0.0
20/07:00am 29.0 35.5 28.7 98 0.2 WSW 13 15 7 8 1010.5 - 0.0
20/06:30am 28.7 34.6 28.4 98 0.2 WSW 15 17 8 9 1010.4 - 0.0
20/06:00am 28.8 35.2 28.5 98 0.2 WSW 13 15 7 8 1010.2 - 0.0
20/05:30am 28.8 34.8 28.5 98 0.2 W 15 17 8 9 1009.8 - 0.0
20/05:00am 28.9 35.4 28.6 98 0.2 W 13 15 7 8 1009.5 - 0.0
20/04:30am 29.1 35.7 28.8 98 0.2 W 13 17 7 9 1009.5 1009.4 0.0
20/04:00am 29.1 34.6 28.4 96 0.5 W 17 19 9 10 1009.4 - 0.0
20/03:30am 29.2 34.8 28.5 96 0.5 W 17 20 9 11 1009.6 - 0.0
20/03:00am 29.3 34.8 28.4 95 0.7 WSW 17 20 9 11 1010.1 - 0.0
20/02:30am 29.4 35.2 28.3 94 0.8 WSW 15 19 8 10 1010.2 - 0.0
20/02:00am 29.5 35.9 29.0 97 0.4 WSW 15 19 8 10 1010.4 - 0.0
20/01:30am 29.6 35.4 29.2 98 0.3 WSW 19 24 10 13 1010.3 1010.2 0.0

Other Formats:

Comma delimited format used in spreadsheet applications
http://www.bom.gov.au/fwo/IDD60801/IDD60801.94102.axf

JavaScript Object Notation format (JSON) in row-major order
http://www.bom.gov.au/fwo/IDD60801/IDD60801.94102.json